createdAt,value
2023-02-26T00:00:45.721Z,946.5
2023-02-26T00:01:45.767Z,946.51
2023-02-26T00:02:45.679Z,946.54
2023-02-26T00:03:45.655Z,946.56
2023-02-26T00:04:45.661Z,946.58
2023-02-26T00:05:45.628Z,946.56
2023-02-26T00:06:45.596Z,946.57
2023-02-26T00:07:45.574Z,946.52
2023-02-26T00:08:45.550Z,946.59
2023-02-26T00:09:45.546Z,946.57
2023-02-26T00:10:45.508Z,946.6
2023-02-26T00:11:45.486Z,946.6
2023-02-26T00:12:45.469Z,946.68
2023-02-26T00:13:45.441Z,946.63
2023-02-26T00:14:45.422Z,946.62
2023-02-26T00:15:45.398Z,946.64
2023-02-26T00:16:45.424Z,946.65
2023-02-26T00:17:45.356Z,946.64
2023-02-26T00:18:45.336Z,946.67
2023-02-26T00:19:45.316Z,946.65
2023-02-26T00:20:45.317Z,946.68
2023-02-26T00:21:45.279Z,946.7
2023-02-26T00:22:45.253Z,946.73
2023-02-26T00:23:45.234Z,946.69
2023-02-26T00:24:45.209Z,946.72
2023-02-26T00:25:45.185Z,946.73
2023-02-26T00:26:45.169Z,946.73
2023-02-26T00:27:45.143Z,946.73
2023-02-26T00:28:45.133Z,946.77
2023-02-26T00:29:45.100Z,946.73
2023-02-26T00:30:45.104Z,946.77
2023-02-26T00:31:45.144Z,946.81
2023-02-26T00:32:45.072Z,946.79
2023-02-26T00:33:45.029Z,946.82
2023-02-26T00:34:44.992Z,946.82
2023-02-26T00:35:44.975Z,946.86
2023-02-26T00:36:44.975Z,946.84
2023-02-26T00:37:44.929Z,946.8
2023-02-26T00:38:44.908Z,946.82
2023-02-26T00:39:44.897Z,946.81
2023-02-26T00:40:44.867Z,946.79
2023-02-26T00:41:44.881Z,946.84
2023-02-26T00:42:44.824Z,946.76
2023-02-26T00:43:44.802Z,946.78
2023-02-26T00:44:44.777Z,946.79
2023-02-26T00:45:44.778Z,946.81
2023-02-26T00:46:44.735Z,946.81
2023-02-26T00:47:44.722Z,946.82
2023-02-26T00:48:44.701Z,946.78
2023-02-26T00:49:44.679Z,946.75
2023-02-26T00:50:44.649Z,946.75
2023-02-26T00:51:44.648Z,946.77
2023-02-26T00:52:44.631Z,946.77
2023-02-26T00:53:44.587Z,946.77
2023-02-26T00:54:44.566Z,946.77
2023-02-26T00:55:44.546Z,946.78
2023-02-26T00:56:44.551Z,946.79
2023-02-26T00:57:44.505Z,946.79
2023-02-26T00:58:44.480Z,946.8
2023-02-26T00:59:44.466Z,946.79
2023-02-26T01:00:44.440Z,946.81
2023-02-26T01:01:44.447Z,946.82
2023-02-26T01:02:44.396Z,946.79
2023-02-26T01:03:44.396Z,946.8
2023-02-26T01:04:44.357Z,946.78
2023-02-26T01:05:44.332Z,946.82
2023-02-26T01:06:44.309Z,946.78
2023-02-26T01:07:44.289Z,946.76
2023-02-26T01:08:44.292Z,946.76
2023-02-26T01:09:44.246Z,946.78
2023-02-26T01:10:44.230Z,946.81
2023-02-26T01:11:44.202Z,946.83
2023-02-26T01:12:44.181Z,946.77
2023-02-26T01:13:44.163Z,946.82
2023-02-26T01:14:44.137Z,946.85
2023-02-26T01:15:44.114Z,946.8
2023-02-26T01:16:44.102Z,946.81
2023-02-26T01:17:44.072Z,946.86
2023-02-26T01:18:44.059Z,946.86
2023-02-26T01:19:44.028Z,946.83
2023-02-26T01:20:44.008Z,946.84
2023-02-26T01:21:43.986Z,946.82
2023-02-26T01:22:43.966Z,946.8
2023-02-26T01:23:43.945Z,946.82
2023-02-26T01:24:43.948Z,946.8
2023-02-26T01:25:43.902Z,946.82
2023-02-26T01:26:43.884Z,946.8
2023-02-26T01:27:43.855Z,946.82
2023-02-26T01:28:43.837Z,946.77
2023-02-26T01:29:43.815Z,946.79
2023-02-26T01:30:43.840Z,946.79
2023-02-26T01:31:43.979Z,946.8
2023-02-26T01:32:43.826Z,946.79
2023-02-26T01:33:43.727Z,946.75
2023-02-26T01:34:43.706Z,946.78
2023-02-26T01:35:43.686Z,946.83
2023-02-26T01:36:43.664Z,946.86
2023-02-26T01:37:43.642Z,946.81
2023-02-26T01:38:43.624Z,946.81
2023-02-26T01:39:43.599Z,946.85
2023-02-26T01:40:43.608Z,946.79
2023-02-26T01:41:43.561Z,946.83
2023-02-26T01:42:43.547Z,946.77
2023-02-26T01:43:43.527Z,946.81
2023-02-26T01:44:43.497Z,946.8
2023-02-26T01:45:43.487Z,946.73
2023-02-26T01:46:43.534Z,946.74
2023-02-26T01:47:43.428Z,946.72
2023-02-26T01:48:43.409Z,946.75
2023-02-26T01:49:43.385Z,946.76
2023-02-26T01:50:43.365Z,946.72
2023-02-26T01:51:43.366Z,946.76
2023-02-26T01:52:43.323Z,946.74
2023-02-26T01:53:43.299Z,946.75
2023-02-26T01:54:43.280Z,946.73
2023-02-26T01:55:43.257Z,946.72
2023-02-26T01:56:43.261Z,946.73
2023-02-26T01:57:43.211Z,946.81
2023-02-26T01:58:43.192Z,946.77
2023-02-26T01:59:43.168Z,946.81
2023-02-26T02:00:43.155Z,946.83
2023-02-26T02:01:43.129Z,946.88
2023-02-26T02:02:43.220Z,946.86
2023-02-26T02:03:43.155Z,946.84
2023-02-26T02:04:43.066Z,946.89
2023-02-26T02:05:43.073Z,946.9
2023-02-26T02:06:43.021Z,946.92
2023-02-26T02:07:42.999Z,946.9
2023-02-26T02:08:42.976Z,946.89
2023-02-26T02:09:42.976Z,946.86
2023-02-26T02:10:42.934Z,946.85
2023-02-26T02:11:42.913Z,946.86
2023-02-26T02:12:42.915Z,946.84
2023-02-26T02:13:42.867Z,946.84
2023-02-26T02:14:42.841Z,946.86
2023-02-26T02:15:42.825Z,946.78
2023-02-26T02:16:42.824Z,946.84
2023-02-26T02:17:42.778Z,946.83
2023-02-26T02:18:42.760Z,946.78
2023-02-26T02:19:42.733Z,946.79
2023-02-26T02:20:42.710Z,946.81
2023-02-26T02:21:42.688Z,946.82
2023-02-26T02:22:42.676Z,946.89
2023-02-26T02:23:42.657Z,946.82
2023-02-26T02:24:42.628Z,946.87
2023-02-26T02:25:42.600Z,946.87
2023-02-26T02:26:42.576Z,946.93
2023-02-26T02:27:42.556Z,946.93
2023-02-26T02:28:42.562Z,946.98
2023-02-26T02:29:42.513Z,947
2023-02-26T02:30:42.491Z,947.06
2023-02-26T02:31:42.656Z,947.07
2023-02-26T02:32:42.546Z,947.07
2023-02-26T02:33:42.428Z,947.08
2023-02-26T02:34:42.402Z,947.09
2023-02-26T02:35:42.382Z,947.16
2023-02-26T02:36:42.359Z,947.15
2023-02-26T02:37:42.338Z,947.17
2023-02-26T02:38:42.315Z,947.11
2023-02-26T02:39:42.304Z,947.1
2023-02-26T02:40:42.276Z,947.14
2023-02-26T02:41:42.252Z,947.15
2023-02-26T02:42:42.238Z,947.08
2023-02-26T02:43:42.210Z,947.12
2023-02-26T02:44:42.218Z,947.15
2023-02-26T02:45:42.406Z,947
2023-02-26T02:46:42.164Z,947.09
2023-02-26T02:47:42.125Z,947.08
2023-02-26T02:48:42.100Z,947.09
2023-02-26T02:49:42.080Z,947.15
2023-02-26T02:50:42.057Z,947.14
2023-02-26T02:51:42.043Z,947.14
2023-02-26T02:52:42.015Z,947.13
2023-02-26T02:53:41.991Z,947.17
2023-02-26T02:54:41.975Z,947.21
2023-02-26T02:55:41.954Z,947.21
2023-02-26T02:56:41.926Z,947.25
2023-02-26T02:57:41.906Z,947.23
2023-02-26T02:58:41.886Z,947.22
2023-02-26T02:59:41.859Z,947.25
2023-02-26T03:00:41.922Z,947.27
2023-02-26T03:01:41.818Z,947.29
2023-02-26T03:02:41.820Z,947.3
2023-02-26T03:03:41.777Z,947.31
2023-02-26T03:04:41.756Z,947.34
2023-02-26T03:05:41.733Z,947.3
2023-02-26T03:06:41.711Z,947.36
2023-02-26T03:07:41.690Z,947.36
2023-02-26T03:08:41.668Z,947.36
2023-02-26T03:09:41.645Z,947.42
2023-02-26T03:10:41.624Z,947.42
2023-02-26T03:11:41.603Z,947.45
2023-02-26T03:12:41.581Z,947.42
2023-02-26T03:13:41.563Z,947.48
2023-02-26T03:14:41.543Z,947.47
2023-02-26T03:15:41.514Z,947.47
2023-02-26T03:16:41.569Z,947.49
2023-02-26T03:17:41.478Z,947.45
2023-02-26T03:18:41.459Z,947.5
2023-02-26T03:19:41.429Z,947.54
2023-02-26T03:20:41.409Z,947.52
2023-02-26T03:21:41.387Z,947.53
2023-02-26T03:22:41.368Z,947.5
2023-02-26T03:23:41.343Z,947.55
2023-02-26T03:24:41.323Z,947.55
2023-02-26T03:25:41.302Z,947.58
2023-02-26T03:26:41.282Z,947.62
2023-02-26T03:27:41.260Z,947.59
2023-02-26T03:28:41.240Z,947.62
2023-02-26T03:29:41.213Z,947.6
2023-02-26T03:30:41.231Z,947.62
2023-02-26T03:31:41.207Z,947.64
2023-02-26T03:32:41.190Z,947.65
2023-02-26T03:49:42.997Z,947.85
2023-02-26T03:50:42.985Z,947.86
2023-02-26T03:51:42.920Z,947.91
2023-02-26T03:52:42.898Z,947.89
2023-02-26T03:53:42.881Z,947.9
2023-02-26T03:54:42.854Z,947.98
2023-02-26T03:55:42.830Z,947.97
2023-02-26T03:56:42.814Z,948.01
2023-02-26T03:57:42.784Z,947.95
2023-02-26T03:58:42.762Z,948.04
2023-02-26T03:59:42.739Z,947.94
2023-02-26T04:00:43.231Z,947.97
2023-02-26T04:01:42.697Z,948.02
2023-02-26T04:02:42.674Z,948.03
2023-02-26T04:03:42.652Z,948
2023-02-26T04:04:42.766Z,948.07
2023-02-26T04:05:42.638Z,948.06
2023-02-26T04:06:42.590Z,948.08
2023-02-26T04:07:42.562Z,948.09
2023-02-26T04:08:42.543Z,948.07
2023-02-26T04:09:42.520Z,948.08
2023-02-26T04:10:42.502Z,948.09
2023-02-26T04:11:42.476Z,948.09
2023-02-26T04:12:42.457Z,948.11
2023-02-26T04:13:42.435Z,948.09
2023-02-26T04:14:42.414Z,948.12
2023-02-26T04:15:42.390Z,948.14
2023-02-26T04:16:42.520Z,948.12
2023-02-26T04:17:42.351Z,948.14
2023-02-26T04:18:42.326Z,948.16
2023-02-26T04:19:42.314Z,948.21
2023-02-26T04:20:42.284Z,948.19
2023-02-26T04:21:42.291Z,948.18
2023-02-26T04:22:42.239Z,948.2
2023-02-26T04:23:42.217Z,948.23
2023-02-26T04:24:42.202Z,948.26
2023-02-26T04:25:42.173Z,948.25
2023-02-26T04:26:42.154Z,948.27
2023-02-26T04:27:42.706Z,948.26
2023-02-26T04:28:42.693Z,948.29
2023-02-26T04:29:42.662Z,948.33
2023-02-26T04:30:42.677Z,948.31
2023-02-26T04:31:42.819Z,948.31
2023-02-26T04:32:42.597Z,948.3
2023-02-26T04:33:42.579Z,948.33
2023-02-26T04:34:42.573Z,948.33
2023-02-26T04:35:42.531Z,948.39
2023-02-26T04:36:42.514Z,948.38
2023-02-26T04:37:42.525Z,948.42
2023-02-26T04:38:42.476Z,948.47
2023-02-26T04:39:42.445Z,948.43
2023-02-26T04:40:42.422Z,948.43
2023-02-26T04:41:42.402Z,948.46
2023-02-26T04:42:42.380Z,948.43
2023-02-26T04:43:42.361Z,948.41
2023-02-26T04:44:42.342Z,948.5
2023-02-26T04:45:42.316Z,948.52
2023-02-26T04:46:42.355Z,948.51
2023-02-26T04:47:42.273Z,948.54
2023-02-26T04:48:42.250Z,948.5
2023-02-26T04:49:42.229Z,948.59
2023-02-26T04:50:42.207Z,948.58
2023-02-26T04:51:42.188Z,948.55
2023-02-26T04:52:42.163Z,948.54
2023-02-26T04:53:42.170Z,948.58
2023-02-26T04:54:42.126Z,948.63
2023-02-26T04:55:42.102Z,948.63
2023-02-26T04:56:42.076Z,948.63
2023-02-26T04:57:42.057Z,948.63
2023-02-26T04:58:42.035Z,948.6
2023-02-26T04:59:42.016Z,948.66
2023-02-26T05:00:41.990Z,948.65
2023-02-26T05:01:42.007Z,948.68
2023-02-26T05:02:41.948Z,948.73
2023-02-26T05:03:41.929Z,948.75
2023-02-26T05:04:41.969Z,948.73
2023-02-26T05:05:41.890Z,948.77
2023-02-26T05:06:41.865Z,948.72
2023-02-26T05:07:41.845Z,948.74
2023-02-26T05:08:41.829Z,948.76
2023-02-26T05:09:41.826Z,948.83
2023-02-26T05:10:41.791Z,948.79
2023-02-26T05:11:41.760Z,948.85
2023-02-26T05:12:41.736Z,948.83
2023-02-26T05:13:41.719Z,948.82
2023-02-26T05:14:41.702Z,948.86
2023-02-26T05:15:41.700Z,948.87
2023-02-26T05:16:41.652Z,948.9
2023-02-26T05:17:41.632Z,948.89
2023-02-26T05:18:41.620Z,948.91
2023-02-26T05:19:41.596Z,948.9
2023-02-26T05:20:41.567Z,948.91
2023-02-26T05:21:41.547Z,948.93
2023-02-26T05:22:41.526Z,948.95
2023-02-26T05:23:41.502Z,948.97
2023-02-26T05:24:41.482Z,948.94
2023-02-26T05:25:41.490Z,948.99
2023-02-26T05:26:41.436Z,949.03
2023-02-26T05:27:41.417Z,949.03
2023-02-26T05:28:41.393Z,949.06
2023-02-26T05:29:41.373Z,949.08
2023-02-26T05:30:41.417Z,949.07
2023-02-26T05:31:41.456Z,949.09
2023-02-26T05:32:41.310Z,949.11
2023-02-26T05:33:41.287Z,949.1
2023-02-26T05:34:41.270Z,949.14
2023-02-26T05:35:41.245Z,949.12
2023-02-26T05:36:41.225Z,949.13
2023-02-26T05:37:41.202Z,949.18
2023-02-26T05:38:41.182Z,949.09
2023-02-26T05:39:41.158Z,949.17
2023-02-26T05:40:41.139Z,949.21
2023-02-26T05:41:41.140Z,949.21
2023-02-26T05:42:41.096Z,949.23
2023-02-26T05:43:41.073Z,949.23
2023-02-26T05:44:41.052Z,949.22
2023-02-26T05:45:41.028Z,949.21
2023-02-26T05:46:41.023Z,949.26
2023-02-26T05:47:40.985Z,949.24
2023-02-26T05:48:40.977Z,949.26
2023-02-26T05:49:40.944Z,949.23
2023-02-26T05:50:40.925Z,949.24
2023-02-26T05:51:40.905Z,949.29
2023-02-26T05:52:40.880Z,949.29
2023-02-26T05:53:40.858Z,949.34
2023-02-26T05:54:40.839Z,949.29
2023-02-26T05:55:40.817Z,949.38
2023-02-26T05:56:40.796Z,949.36
2023-02-26T05:57:40.794Z,949.36
2023-02-26T05:58:40.755Z,949.39
2023-02-26T05:59:40.734Z,949.41
2023-02-26T06:00:40.708Z,949.41
2023-02-26T06:01:40.704Z,949.4
2023-02-26T06:02:40.716Z,949.42
2023-02-26T06:03:40.642Z,949.46
2023-02-26T06:04:40.622Z,949.46
2023-02-26T06:05:40.599Z,949.52
2023-02-26T06:06:40.579Z,949.49
2023-02-26T06:07:40.560Z,949.56
2023-02-26T06:08:40.539Z,949.58
2023-02-26T06:09:40.537Z,949.56
2023-02-26T06:10:40.494Z,949.56
2023-02-26T06:11:40.509Z,949.6
2023-02-26T06:12:40.449Z,949.63
2023-02-26T06:13:40.454Z,949.64
2023-02-26T06:14:40.408Z,949.67
2023-02-26T06:15:40.384Z,949.67
2023-02-26T06:16:40.412Z,949.67
2023-02-26T06:17:40.926Z,949.72
2023-02-26T06:18:40.322Z,949.73
2023-02-26T06:19:40.302Z,949.75
2023-02-26T06:20:40.277Z,949.82
2023-02-26T06:21:40.257Z,949.77
2023-02-26T06:22:40.242Z,949.84
2023-02-26T06:23:40.214Z,949.84
2023-02-26T06:24:40.191Z,949.93
2023-02-26T06:25:40.171Z,949.96
2023-02-26T06:26:40.147Z,949.97
2023-02-26T06:27:40.135Z,950.02
2023-02-26T06:28:40.106Z,949.98
2023-02-26T06:29:40.113Z,950.08
2023-02-26T06:30:40.108Z,950.08
2023-02-26T06:31:40.112Z,950.12
2023-02-26T06:32:40.099Z,950.06
2023-02-26T06:33:40.018Z,950.21
2023-02-26T06:34:39.982Z,950.15
2023-02-26T06:35:39.961Z,950.16
2023-02-26T06:36:39.938Z,950.22
2023-02-26T06:37:40.138Z,950.26
2023-02-26T06:38:40.112Z,950.28
2023-02-26T06:39:40.094Z,950.27
2023-02-26T06:40:40.071Z,950.3
2023-02-26T06:41:40.072Z,950.38
2023-02-26T06:42:40.043Z,950.4
2023-02-26T06:43:40.014Z,950.34
2023-02-26T06:44:39.989Z,950.38
2023-02-26T06:45:40.109Z,950.43
2023-02-26T06:46:39.944Z,950.38
2023-02-26T06:47:39.925Z,950.45
2023-02-26T06:48:39.902Z,950.42
2023-02-26T06:49:39.884Z,950.45
2023-02-26T06:50:39.859Z,950.46
2023-02-26T06:51:39.844Z,950.52
2023-02-26T06:52:39.830Z,950.53
2023-02-26T06:53:39.798Z,950.54
2023-02-26T06:54:39.775Z,950.52
2023-02-26T06:55:39.755Z,950.56
2023-02-26T06:56:39.732Z,950.6
2023-02-26T06:57:40.079Z,950.57
2023-02-26T06:58:40.075Z,950.63
2023-02-26T06:59:40.038Z,950.65
2023-02-26T07:00:40.014Z,950.65
2023-02-26T07:01:40.022Z,950.65
2023-02-26T07:02:40.033Z,950.7
2023-02-26T07:03:39.950Z,950.78
2023-02-26T07:04:39.927Z,950.79
2023-02-26T07:05:39.907Z,950.84
2023-02-26T07:06:40.333Z,950.8
2023-02-26T07:07:39.863Z,950.86
2023-02-26T07:08:39.841Z,950.87
2023-02-26T07:09:39.825Z,950.77
2023-02-26T07:10:39.796Z,950.9
2023-02-26T07:11:39.779Z,950.9
2023-02-26T07:12:39.757Z,950.91
2023-02-26T07:13:39.735Z,950.84
2023-02-26T07:14:39.722Z,950.95
2023-02-26T07:15:39.692Z,950.94
2023-02-26T07:16:39.731Z,950.99
2023-02-26T07:17:39.676Z,950.96
2023-02-26T07:18:39.663Z,950.97
2023-02-26T07:19:39.608Z,950.96
2023-02-26T07:20:39.591Z,950.99
2023-02-26T07:21:39.568Z,951.04
2023-02-26T07:22:39.547Z,951.07
2023-02-26T07:23:39.523Z,951.06
2023-02-26T07:24:39.505Z,951.12
2023-02-26T07:25:39.488Z,951.18
2023-02-26T07:26:39.466Z,951.15
2023-02-26T07:27:39.440Z,951.17
2023-02-26T07:28:39.421Z,951.18
2023-02-26T07:29:39.398Z,951.19
2023-02-26T07:30:39.484Z,951.12
2023-02-26T07:31:39.473Z,951.26
2023-02-26T07:32:39.338Z,951.24
2023-02-26T07:33:39.339Z,951.32
2023-02-26T07:34:39.295Z,951.29
2023-02-26T07:35:39.274Z,951.29
2023-02-26T07:36:39.252Z,951.34
2023-02-26T07:37:39.229Z,951.34
2023-02-26T07:38:39.227Z,951.35
2023-02-26T07:39:39.187Z,951.37
2023-02-26T07:40:39.167Z,951.34
2023-02-26T07:41:39.145Z,951.42
2023-02-26T07:42:39.135Z,951.41
2023-02-26T07:43:39.106Z,951.41
2023-02-26T07:44:39.086Z,951.43
2023-02-26T07:45:39.065Z,951.43
2023-02-26T07:46:39.080Z,951.39
2023-02-26T07:47:39.019Z,951.49
2023-02-26T07:48:39.000Z,951.45
2023-02-26T07:49:39.001Z,951.47
2023-02-26T07:50:38.959Z,951.53
2023-02-26T07:51:38.936Z,951.56
2023-02-26T07:52:38.917Z,951.56
2023-02-26T07:53:38.895Z,951.57
2023-02-26T07:54:38.874Z,951.52
2023-02-26T07:55:38.868Z,951.6
2023-02-26T07:56:38.833Z,951.58
2023-02-26T07:57:38.812Z,951.63
2023-02-26T07:58:38.810Z,951.63
2023-02-26T07:59:38.771Z,951.63
2023-02-26T08:00:38.755Z,951.58
2023-02-26T08:01:38.765Z,951.66
2023-02-26T08:02:38.716Z,951.62
2023-02-26T08:03:38.694Z,951.71
2023-02-26T08:04:38.673Z,951.68
2023-02-26T08:05:38.674Z,951.7
2023-02-26T08:06:38.643Z,951.73
2023-02-26T08:07:38.611Z,951.78
2023-02-26T08:08:38.586Z,951.76
2023-02-26T08:09:38.566Z,951.79
2023-02-26T08:10:40.539Z,951.8
2023-02-26T08:11:38.525Z,951.82
2023-02-26T08:12:38.504Z,951.88
2023-02-26T08:13:38.491Z,951.84
2023-02-26T08:14:38.464Z,951.89
2023-02-26T08:15:38.577Z,951.89
2023-02-26T08:16:38.428Z,951.92
2023-02-26T08:17:38.407Z,951.93
2023-02-26T08:18:38.381Z,951.96
2023-02-26T08:19:38.379Z,951.98
2023-02-26T08:20:38.342Z,951.96
2023-02-26T08:21:38.346Z,952.02
2023-02-26T08:22:38.298Z,952.04
2023-02-26T08:23:38.280Z,952.07
2023-02-26T08:24:38.257Z,952.04
2023-02-26T08:25:38.241Z,952.09
2023-02-26T08:26:38.216Z,952.15
2023-02-26T08:27:38.196Z,952.1
2023-02-26T08:28:38.174Z,952.12
2023-02-26T08:29:38.154Z,952.17
2023-02-26T08:30:38.191Z,952.15
2023-02-26T08:31:38.281Z,952.15
2023-02-26T08:32:38.137Z,952.17
2023-02-26T08:33:38.075Z,952.21
2023-02-26T08:34:38.124Z,952.23
2023-02-26T08:35:38.114Z,952.25
2023-02-26T08:36:38.085Z,952.24
2023-02-26T08:37:38.087Z,952.25
2023-02-26T08:38:38.042Z,952.28
2023-02-26T08:39:38.021Z,952.26
2023-02-26T08:40:38.003Z,952.3
2023-02-26T08:41:37.982Z,952.31
2023-02-26T08:42:37.959Z,952.34
2023-02-26T08:43:37.940Z,952.36
2023-02-26T08:44:37.922Z,952.36
2023-02-26T08:45:37.904Z,952.36
2023-02-26T08:46:37.938Z,952.39
2023-02-26T08:47:42.299Z,952.44
2023-02-26T08:48:37.839Z,952.49
2023-02-26T08:49:37.823Z,952.48
2023-02-26T08:50:37.798Z,952.48
2023-02-26T08:51:37.782Z,952.54
2023-02-26T08:52:37.757Z,952.53
2023-02-26T08:53:37.769Z,952.56
2023-02-26T08:54:37.722Z,952.53
2023-02-26T08:55:37.699Z,952.62
2023-02-26T08:56:37.686Z,952.6
2023-02-26T08:57:37.658Z,952.64
2023-02-26T08:58:37.656Z,952.69
2023-02-26T08:59:37.615Z,952.66
2023-02-26T09:00:37.599Z,952.68
2023-02-26T09:01:37.591Z,952.66
2023-02-26T09:02:37.605Z,952.74
2023-02-26T09:03:37.534Z,952.78
2023-02-26T09:04:37.520Z,952.76
2023-02-26T09:05:37.497Z,952.74
2023-02-26T09:06:37.477Z,952.79
2023-02-26T09:07:37.453Z,952.82
2023-02-26T09:08:37.435Z,952.8
2023-02-26T09:09:37.449Z,952.79
2023-02-26T09:10:37.709Z,952.87
2023-02-26T09:11:37.374Z,952.93
2023-02-26T09:12:37.363Z,952.91
2023-02-26T09:13:37.333Z,952.95
2023-02-26T09:14:37.319Z,952.91
2023-02-26T09:15:37.291Z,952.95
2023-02-26T09:16:37.352Z,952.94
2023-02-26T09:17:37.250Z,953.03
2023-02-26T09:18:37.236Z,952.98
2023-02-26T09:19:37.211Z,953.01
2023-02-26T09:20:37.190Z,953.03
2023-02-26T09:21:37.168Z,953.08
2023-02-26T09:22:37.150Z,953.09
2023-02-26T09:23:37.125Z,953.11
2023-02-26T09:24:37.114Z,953.12
2023-02-26T09:25:37.114Z,953.1
2023-02-26T09:26:37.064Z,953.12
2023-02-26T09:27:37.043Z,953.16
2023-02-26T09:28:37.084Z,953.17
2023-02-26T09:29:37.001Z,953.19
2023-02-26T09:30:36.993Z,953.23
2023-02-26T09:31:37.041Z,953.21
2023-02-26T09:32:37.073Z,953.23
2023-02-26T09:33:36.921Z,953.25
2023-02-26T09:34:36.903Z,953.26
2023-02-26T09:35:36.880Z,953.29
2023-02-26T09:36:36.860Z,953.33
2023-02-26T09:37:36.848Z,953.32
2023-02-26T09:38:36.818Z,953.35
2023-02-26T09:39:36.804Z,953.36
2023-02-26T09:40:36.785Z,953.36
2023-02-26T09:41:36.782Z,953.35
2023-02-26T09:42:36.738Z,953.28
2023-02-26T09:43:36.715Z,953.34
2023-02-26T09:44:36.695Z,953.35
2023-02-26T09:45:36.704Z,953.42
2023-02-26T09:46:36.656Z,953.35
2023-02-26T09:47:36.637Z,953.37
2023-02-26T09:48:36.615Z,953.45
2023-02-26T09:49:36.597Z,953.44
2023-02-26T09:50:36.584Z,953.41
2023-02-26T09:51:36.556Z,953.46
2023-02-26T09:52:36.537Z,953.47
2023-02-26T09:53:36.583Z,953.47
2023-02-26T09:54:36.546Z,953.47
2023-02-26T09:55:36.557Z,953.41
2023-02-26T09:56:36.457Z,953.44
2023-02-26T09:57:36.465Z,953.49
2023-02-26T09:58:36.417Z,953.47
2023-02-26T09:59:36.403Z,953.47
2023-02-26T10:00:36.379Z,953.6
2023-02-26T10:01:36.360Z,953.52
2023-02-26T10:02:36.338Z,953.5
2023-02-26T10:03:36.318Z,953.54
2023-02-26T10:04:36.297Z,953.54
2023-02-26T10:05:36.279Z,953.61
2023-02-26T10:06:36.258Z,953.64
2023-02-26T10:07:36.239Z,953.65
2023-02-26T10:08:36.220Z,953.63
2023-02-26T10:09:36.207Z,953.62
2023-02-26T10:10:36.184Z,953.66
2023-02-26T10:11:36.175Z,953.64
2023-02-26T10:12:36.144Z,953.7
2023-02-26T10:13:38.566Z,953.69
2023-02-26T10:14:36.098Z,953.67
2023-02-26T10:15:36.079Z,953.79
2023-02-26T10:16:36.183Z,953.74
2023-02-26T10:17:36.051Z,953.76
2023-02-26T10:18:36.021Z,953.76
2023-02-26T10:19:36.000Z,953.82
2023-02-26T10:20:36.022Z,953.75
2023-02-26T10:21:35.962Z,953.83
2023-02-26T10:22:35.941Z,953.82
2023-02-26T10:23:35.933Z,953.82
2023-02-26T10:24:35.900Z,953.89
2023-02-26T10:25:35.882Z,953.86
2023-02-26T10:26:35.859Z,953.87
2023-02-26T10:27:35.838Z,953.93
2023-02-26T10:28:35.821Z,953.88
2023-02-26T10:29:35.821Z,953.97
2023-02-26T10:30:35.813Z,953.94
2023-02-26T10:31:35.807Z,953.98
2023-02-26T10:32:35.910Z,953.96
2023-02-26T10:33:35.716Z,953.95
2023-02-26T10:34:35.702Z,954
2023-02-26T10:35:35.676Z,954.01
2023-02-26T10:36:35.654Z,954.03
2023-02-26T10:37:35.642Z,954.04
2023-02-26T10:38:35.614Z,954.03
2023-02-26T10:39:35.593Z,954.07
2023-02-26T10:40:35.583Z,954.03
2023-02-26T10:41:35.556Z,954.08
2023-02-26T10:42:35.536Z,954.07
2023-02-26T10:43:35.524Z,954.08
2023-02-26T10:44:35.496Z,954.08
2023-02-26T10:45:35.517Z,954.05
2023-02-26T10:46:35.457Z,954.07
2023-02-26T10:47:35.436Z,954.11
2023-02-26T10:48:35.419Z,954.15
2023-02-26T10:49:35.403Z,954.08
2023-02-26T10:50:35.382Z,954.19
2023-02-26T10:51:35.364Z,954.15
2023-02-26T10:52:35.343Z,954.17
2023-02-26T10:53:35.319Z,954.16
2023-02-26T10:54:35.311Z,954.2
2023-02-26T10:55:35.292Z,954.17
2023-02-26T10:56:35.267Z,954.23
2023-02-26T10:57:35.243Z,954.16
2023-02-26T10:58:35.226Z,954.19
2023-02-26T10:59:35.206Z,954.19
2023-02-26T11:00:35.257Z,954.21
2023-02-26T11:01:35.198Z,954.2
2023-02-26T11:02:35.205Z,954.2
2023-02-26T11:03:35.126Z,954.22
2023-02-26T11:04:35.106Z,954.23
2023-02-26T11:05:35.085Z,954.26
2023-02-26T11:06:35.074Z,954.29
2023-02-26T11:07:35.051Z,954.28
2023-02-26T11:08:35.029Z,954.33
2023-02-26T11:09:35.009Z,954.31
2023-02-26T11:10:34.992Z,954.3
2023-02-26T11:11:34.967Z,954.29
2023-02-26T11:12:34.950Z,954.28
2023-02-26T11:13:34.932Z,954.3
2023-02-26T11:14:34.915Z,954.3
2023-02-26T11:15:34.899Z,954.33
2023-02-26T11:16:34.870Z,954.34
2023-02-26T11:17:34.880Z,954.35
2023-02-26T11:18:34.838Z,954.29
2023-02-26T11:19:34.810Z,954.33
2023-02-26T11:20:34.793Z,954.36
2023-02-26T11:21:34.771Z,954.36
2023-02-26T11:22:34.750Z,954.35
2023-02-26T11:23:34.734Z,954.35
2023-02-26T11:24:34.864Z,954.34
2023-02-26T11:25:36.066Z,954.32
2023-02-26T11:26:34.823Z,954.41
2023-02-26T11:27:34.803Z,954.39
2023-02-26T11:28:34.781Z,954.38
2023-02-26T11:29:34.761Z,954.33
2023-02-26T11:30:34.754Z,954.41
2023-02-26T11:31:34.767Z,954.44
2023-02-26T11:32:34.773Z,954.4
2023-02-26T11:33:34.708Z,954.44
2023-02-26T11:34:34.663Z,954.39
2023-02-26T11:35:34.645Z,954.44
2023-02-26T11:36:34.623Z,954.46
2023-02-26T11:37:34.606Z,954.42
2023-02-26T11:38:34.625Z,954.43
2023-02-26T11:39:34.563Z,954.44
2023-02-26T11:40:34.550Z,954.44
2023-02-26T11:41:34.525Z,954.41
2023-02-26T11:42:34.500Z,954.45
2023-02-26T11:43:34.482Z,954.42
2023-02-26T11:44:34.481Z,954.47
2023-02-26T11:45:34.472Z,954.4
2023-02-26T11:46:34.479Z,954.43
2023-02-26T11:47:34.413Z,954.44
2023-02-26T11:48:34.395Z,954.47
2023-02-26T11:49:34.395Z,954.48
2023-02-26T11:50:34.340Z,954.46
2023-02-26T11:51:34.320Z,954.45
2023-02-26T11:52:35.321Z,954.48
2023-02-26T11:53:35.302Z,954.48
2023-02-26T11:54:35.280Z,954.48
2023-02-26T11:55:35.262Z,954.51
2023-02-26T11:56:35.240Z,954.47
2023-02-26T11:57:35.219Z,954.49
2023-02-26T11:58:35.197Z,954.5
2023-02-26T11:59:35.178Z,954.46
2023-02-26T12:00:35.155Z,954.52
2023-02-26T12:01:35.138Z,954.49
2023-02-26T12:02:35.214Z,954.47
2023-02-26T12:03:35.113Z,954.52
2023-02-26T12:04:35.074Z,954.53
2023-02-26T12:05:35.137Z,954.46
2023-02-26T12:06:35.035Z,954.49
2023-02-26T12:07:35.019Z,954.55
2023-02-26T12:08:35.014Z,954.5
2023-02-26T12:09:34.993Z,954.48
2023-02-26T12:10:34.956Z,954.49
2023-02-26T12:11:34.933Z,954.51
2023-02-26T12:12:34.915Z,954.45
2023-02-26T12:13:34.901Z,954.48
2023-02-26T12:14:34.872Z,954.46
2023-02-26T12:15:34.851Z,954.47
2023-02-26T12:16:34.835Z,954.45
2023-02-26T12:17:34.813Z,954.51
2023-02-26T12:18:34.791Z,954.49
2023-02-26T12:19:34.771Z,954.46
2023-02-26T12:20:34.749Z,954.47
2023-02-26T12:21:34.761Z,954.47
2023-02-26T12:22:34.716Z,954.45
2023-02-26T12:23:34.694Z,954.48
2023-02-26T12:24:34.671Z,954.53
2023-02-26T12:25:34.653Z,954.54
2023-02-26T12:26:34.654Z,954.5
2023-02-26T12:27:34.616Z,954.49
2023-02-26T12:28:34.590Z,954.45
2023-02-26T12:29:34.571Z,954.51
2023-02-26T12:30:34.594Z,954.53
2023-02-26T12:31:34.595Z,954.51
2023-02-26T12:32:34.582Z,954.48
2023-02-26T12:33:34.488Z,954.5
2023-02-26T12:34:34.471Z,954.49
2023-02-26T12:35:34.451Z,954.53
2023-02-26T12:36:47.851Z,954.49
2023-02-26T12:37:34.438Z,954.46
2023-02-26T12:38:34.390Z,954.57
2023-02-26T12:39:34.373Z,954.52
2023-02-26T12:40:34.350Z,954.55
2023-02-26T12:41:34.329Z,954.61
2023-02-26T12:42:34.311Z,954.63
2023-02-26T12:43:35.641Z,954.65
2023-02-26T12:44:34.272Z,954.59
2023-02-26T12:45:34.249Z,954.64
2023-02-26T12:46:34.331Z,954.61